createdAt,value
2017-03-28T00:00:04.177Z,0
2017-03-28T00:01:15.371Z,0
2017-03-28T00:02:26.367Z,0
2017-03-28T00:03:37.360Z,0
2017-03-28T00:04:48.350Z,0
2017-03-28T00:05:59.343Z,0
2017-03-28T00:07:10.332Z,0
2017-03-28T00:08:21.320Z,0
2017-03-28T00:09:32.516Z,0
2017-03-28T00:10:43.558Z,0
2017-03-28T00:11:54.552Z,0
2017-03-28T00:13:05.955Z,0
2017-03-28T00:14:16.972Z,0
2017-03-28T00:15:27.951Z,0
2017-03-28T00:16:38.961Z,0
2017-03-28T00:17:50.167Z,0
2017-03-28T00:19:01.156Z,0
2017-03-28T00:20:12.140Z,0
2017-03-28T00:21:23.129Z,0
2017-03-28T00:22:34.109Z,0
2017-03-28T00:23:45.111Z,0
2017-03-28T00:24:56.101Z,0
2017-03-28T00:26:07.141Z,0
2017-03-28T00:27:18.122Z,0
2017-03-28T00:28:29.324Z,0
2017-03-28T00:29:40.322Z,0
2017-03-28T00:30:51.309Z,0
2017-03-28T00:32:02.299Z,0
2017-03-28T00:33:13.490Z,0
2017-03-28T00:34:24.683Z,0
2017-03-28T00:35:35.674Z,0
2017-03-28T00:36:46.908Z,0
2017-03-28T00:37:57.908Z,0
2017-03-28T00:39:09.100Z,0
2017-03-28T00:40:20.292Z,0
2017-03-28T00:41:31.299Z,0
2017-03-28T00:42:42.294Z,0
2017-03-28T00:43:53.487Z,0
2017-03-28T00:45:04.484Z,0
2017-03-28T00:46:15.863Z,0
2017-03-28T00:47:26.861Z,0
2017-03-28T00:48:37.866Z,0
2017-03-28T00:49:49.079Z,0
2017-03-28T00:51:00.066Z,0
2017-03-28T00:52:11.101Z,0
2017-03-28T00:53:22.289Z,0
2017-03-28T00:54:33.285Z,0
2017-03-28T00:55:44.265Z,0
2017-03-28T00:56:55.251Z,0
2017-03-28T00:58:06.442Z,0
2017-03-28T00:59:17.435Z,0
2017-03-28T01:00:28.416Z,0
2017-03-28T01:01:39.414Z,0
2017-03-28T01:02:50.608Z,0
2017-03-28T01:04:01.801Z,0
2017-03-28T01:05:12.785Z,0
2017-03-28T01:06:23.771Z,0
2017-03-28T01:07:34.761Z,0
2017-03-28T01:08:45.756Z,0
2017-03-28T01:09:56.765Z,0
2017-03-28T01:11:07.754Z,0
2017-03-28T01:12:19.025Z,0
2017-03-28T01:13:30.226Z,0
2017-03-28T01:14:41.224Z,0
2017-03-28T01:15:52.210Z,0
2017-03-28T01:17:03.207Z,0
2017-03-28T01:18:14.410Z,0
2017-03-28T01:19:25.609Z,0
2017-03-28T01:20:36.596Z,0
2017-03-28T01:21:47.581Z,0
2017-03-28T01:22:58.770Z,0
2017-03-28T01:24:09.771Z,0
2017-03-28T01:25:20.758Z,0
2017-03-28T01:26:31.736Z,0
2017-03-28T01:27:42.773Z,0
2017-03-28T01:28:53.973Z,0
2017-03-28T01:30:04.963Z,0
2017-03-28T01:31:15.945Z,0
2017-03-28T01:32:26.925Z,0
2017-03-28T01:33:37.915Z,0
2017-03-28T01:34:49.097Z,0
2017-03-28T01:36:00.098Z,0
2017-03-28T01:37:11.088Z,0
2017-03-28T01:38:22.076Z,0
2017-03-28T01:39:33.272Z,0
2017-03-28T01:40:44.261Z,0
2017-03-28T01:41:55.256Z,0
2017-03-28T01:43:06.305Z,0
2017-03-28T01:44:17.703Z,0
2017-03-28T01:45:28.732Z,0
2017-03-28T01:46:39.720Z,0
2017-03-28T01:47:50.712Z,0
2017-03-28T01:49:01.715Z,0
2017-03-28T01:50:12.903Z,0
2017-03-28T01:51:23.887Z,0
2017-03-28T01:52:34.874Z,0
2017-03-28T01:53:46.069Z,0
2017-03-28T01:54:57.271Z,0
2017-03-28T01:56:08.256Z,0
2017-03-28T01:57:19.847Z,0
2017-03-28T01:58:30.915Z,0
2017-03-28T01:59:41.910Z,0
2017-03-28T02:00:52.894Z,0
2017-03-28T02:02:03.877Z,0
2017-03-28T02:03:14.867Z,0
2017-03-28T02:04:25.876Z,0
2017-03-28T02:05:36.856Z,0
2017-03-28T02:06:47.840Z,0
2017-03-28T02:07:58.837Z,0
2017-03-28T02:09:10.288Z,0
2017-03-28T02:10:21.477Z,0
2017-03-28T02:11:32.473Z,0
2017-03-28T02:12:43.479Z,0
2017-03-28T02:13:54.470Z,0
2017-03-28T02:15:05.458Z,0
2017-03-28T02:16:16.442Z,0
2017-03-28T02:17:27.631Z,0
2017-03-28T02:18:38.628Z,0
2017-03-28T02:19:50.063Z,0
2017-03-28T02:21:01.072Z,0
2017-03-28T02:22:12.055Z,0
2017-03-28T02:23:23.033Z,0
2017-03-28T02:24:34.415Z,0
2017-03-28T02:25:45.392Z,0
2017-03-28T02:26:56.378Z,0
2017-03-28T02:28:07.370Z,0
2017-03-28T02:29:18.361Z,0
2017-03-28T02:30:29.343Z,0
2017-03-28T02:31:40.533Z,0
2017-03-28T02:32:51.518Z,0
2017-03-28T02:34:02.499Z,0
2017-03-28T02:35:13.483Z,0
2017-03-28T02:36:24.482Z,0
2017-03-28T02:37:35.671Z,0
2017-03-28T02:38:46.657Z,0
2017-03-28T02:39:57.641Z,0
2017-03-28T02:41:08.626Z,0
2017-03-28T02:42:19.818Z,0
2017-03-28T02:43:31.010Z,0
2017-03-28T02:44:41.995Z,0
2017-03-28T02:45:53.058Z,0
2017-03-28T02:47:04.040Z,0
2017-03-28T02:48:15.024Z,0
2017-03-28T02:49:26.015Z,0
2017-03-28T02:50:37.003Z,0
2017-03-28T02:51:47.990Z,0
2017-03-28T02:52:59.183Z,0
2017-03-28T02:54:10.178Z,0
2017-03-28T02:55:21.369Z,0
2017-03-28T02:56:32.398Z,0
2017-03-28T02:57:43.432Z,0
2017-03-28T02:58:54.422Z,0
2017-03-28T03:00:05.622Z,0
2017-03-28T03:01:16.821Z,0
2017-03-28T03:02:27.805Z,0
2017-03-28T03:03:38.803Z,0
2017-03-28T03:04:49.794Z,0
2017-03-28T03:06:00.781Z,0
2017-03-28T03:07:12.012Z,0
2017-03-28T03:08:22.999Z,0
2017-03-28T03:09:34.202Z,0
2017-03-28T03:10:45.397Z,0
2017-03-28T03:11:56.387Z,0
2017-03-28T03:13:07.378Z,0
2017-03-28T03:14:18.392Z,0
2017-03-28T03:15:29.388Z,0
2017-03-28T03:16:40.373Z,0
2017-03-28T03:17:51.376Z,0
2017-03-28T03:19:02.366Z,0
2017-03-28T03:20:13.352Z,0
2017-03-28T03:21:24.345Z,0
2017-03-28T03:22:35.327Z,0
2017-03-28T03:23:46.339Z,0
2017-03-28T03:24:57.334Z,0
2017-03-28T03:26:08.322Z,0
2017-03-28T03:27:19.335Z,0
2017-03-28T03:28:30.374Z,0
2017-03-28T03:29:41.568Z,0
2017-03-28T03:30:52.755Z,0
2017-03-28T03:32:03.742Z,0
2017-03-28T03:33:14.724Z,0
2017-03-28T03:34:25.705Z,0
2017-03-28T03:35:36.688Z,0
2017-03-28T03:36:47.674Z,0
2017-03-28T03:37:58.669Z,0
2017-03-28T03:39:09.654Z,0
2017-03-28T03:40:20.635Z,0
2017-03-28T03:41:31.620Z,0
2017-03-28T03:42:42.609Z,0
2017-03-28T03:43:53.659Z,0
2017-03-28T03:45:04.652Z,0
2017-03-28T03:46:15.643Z,0
2017-03-28T03:47:26.642Z,0
2017-03-28T03:48:37.667Z,0
2017-03-28T03:49:48.656Z,0
2017-03-28T03:50:59.645Z,0
2017-03-28T03:52:10.629Z,0
2017-03-28T03:53:21.827Z,0
2017-03-28T03:54:32.876Z,0
2017-03-28T03:55:43.870Z,0
2017-03-28T03:56:55.052Z,0
2017-03-28T03:58:06.247Z,0
2017-03-28T03:59:17.633Z,0
2017-03-28T04:00:28.619Z,0
2017-03-28T04:01:39.604Z,0
2017-03-28T04:02:50.595Z,0
2017-03-28T04:04:01.582Z,0
2017-03-28T04:05:12.778Z,0
2017-03-28T04:06:23.757Z,0
2017-03-28T04:07:34.749Z,0
2017-03-28T04:08:45.941Z,0
2017-03-28T04:09:56.975Z,0
2017-03-28T04:11:07.971Z,0
2017-03-28T04:12:18.964Z,0
2017-03-28T04:13:29.952Z,0
2017-03-28T04:14:40.933Z,0
2017-03-28T04:15:52.114Z,0
2017-03-28T04:17:03.114Z,0
2017-03-28T04:18:14.122Z,0
2017-03-28T04:19:25.120Z,0
2017-03-28T04:20:36.103Z,0
2017-03-28T04:21:47.093Z,0
2017-03-28T04:22:58.082Z,0
2017-03-28T04:24:09.277Z,0
2017-03-28T04:25:20.310Z,0
2017-03-28T04:26:31.299Z,0
2017-03-28T04:27:42.302Z,0
2017-03-28T04:28:53.284Z,0
2017-03-28T04:30:04.279Z,0
2017-03-28T04:31:15.256Z,0
2017-03-28T04:32:26.245Z,0
2017-03-28T04:33:37.241Z,0
2017-03-28T04:34:48.228Z,0
2017-03-28T04:35:59.205Z,0
2017-03-28T04:37:10.396Z,0
2017-03-28T04:38:21.378Z,0
2017-03-28T04:39:32.364Z,0
2017-03-28T04:40:43.558Z,0
2017-03-28T04:41:54.950Z,0
2017-03-28T04:43:06.134Z,0
2017-03-28T04:44:17.128Z,0
2017-03-28T04:45:28.105Z,0
2017-03-28T04:46:39.097Z,0
2017-03-28T04:47:50.284Z,0
2017-03-28T04:49:01.274Z,0
2017-03-28T04:50:12.473Z,0
2017-03-28T04:51:23.713Z,0
2017-03-28T04:52:34.898Z,0
2017-03-28T04:53:45.885Z,0
2017-03-28T04:54:56.897Z,0
2017-03-28T04:56:07.889Z,0
2017-03-28T04:57:18.872Z,0
2017-03-28T04:58:29.865Z,0
2017-03-28T04:59:41.055Z,0
2017-03-28T05:00:52.270Z,0
2017-03-28T05:02:03.253Z,5
2017-03-28T05:03:14.237Z,5
2017-03-28T05:04:25.422Z,5
2017-03-28T05:05:36.414Z,5
2017-03-28T05:06:47.655Z,5
2017-03-28T05:07:58.649Z,10
2017-03-28T05:09:09.836Z,10
2017-03-28T05:10:21.025Z,10
2017-03-28T05:11:32.014Z,10
2017-03-28T05:12:43.005Z,15
2017-03-28T05:13:54.004Z,15
2017-03-28T05:15:04.989Z,15
2017-03-28T05:16:15.975Z,20
2017-03-28T05:17:27.195Z,20
2017-03-28T05:18:38.197Z,25
2017-03-28T05:19:49.192Z,25
2017-03-28T05:21:00.178Z,25
2017-03-28T05:22:11.210Z,30
2017-03-28T05:23:22.393Z,30
2017-03-28T05:24:33.584Z,35
2017-03-28T05:25:44.574Z,40
2017-03-28T05:26:55.558Z,40
2017-03-28T05:28:06.562Z,45
2017-03-28T05:29:17.754Z,45
2017-03-28T05:30:28.746Z,50
2017-03-28T05:31:39.728Z,55
2017-03-28T05:32:51.178Z,60
2017-03-28T05:34:02.182Z,60
2017-03-28T05:35:13.175Z,75
2017-03-28T05:36:24.354Z,115
2017-03-28T05:37:35.336Z,170
2017-03-28T05:38:46.336Z,210
2017-03-28T05:39:57.328Z,245
2017-03-28T05:41:08.323Z,325
2017-03-28T05:42:19.516Z,325
2017-03-28T05:43:30.965Z,325
2017-03-28T05:44:41.960Z,345
2017-03-28T05:45:53.152Z,245
2017-03-28T05:47:04.344Z,210
2017-03-28T05:48:15.333Z,310
2017-03-28T05:49:26.324Z,300
2017-03-28T05:50:37.516Z,155
2017-03-28T05:51:48.506Z,165
2017-03-28T05:52:59.486Z,205
2017-03-28T05:54:10.731Z,295
2017-03-28T05:55:21.723Z,340
2017-03-28T05:56:32.715Z,310
2017-03-28T05:57:43.697Z,255
2017-03-28T05:58:54.683Z,190
2017-03-28T06:00:05.672Z,235
2017-03-28T06:01:16.681Z,425
2017-03-28T06:02:27.676Z,415
2017-03-28T06:03:38.673Z,335
2017-03-28T06:04:49.912Z,440
2017-03-28T06:06:00.897Z,430
2017-03-28T06:07:12.092Z,275
2017-03-28T06:08:23.082Z,340
2017-03-28T06:09:34.080Z,590
2017-03-28T06:10:45.266Z,635
2017-03-28T06:11:56.257Z,465
2017-03-28T06:13:07.257Z,430
2017-03-28T06:14:18.253Z,545
2017-03-28T06:15:29.242Z,680
2017-03-28T06:16:40.433Z,600
2017-03-28T06:17:51.425Z,345
2017-03-28T06:19:02.437Z,310
2017-03-28T06:20:13.476Z,605
2017-03-28T06:21:24.470Z,545
2017-03-28T06:22:35.657Z,540
2017-03-28T06:23:46.859Z,550
2017-03-28T06:24:58.058Z,490
2017-03-28T06:26:09.055Z,505
2017-03-28T06:27:20.251Z,495
2017-03-28T06:28:31.447Z,590
2017-03-28T06:29:42.434Z,730
2017-03-28T06:30:53.673Z,605
2017-03-28T06:32:04.670Z,690
2017-03-28T06:33:15.660Z,555
2017-03-28T06:34:26.651Z,435
2017-03-28T06:35:37.643Z,590
2017-03-28T06:36:48.826Z,700
2017-03-28T06:37:59.817Z,540
2017-03-28T06:39:10.809Z,535
2017-03-28T06:40:21.801Z,550
2017-03-28T06:41:33.246Z,590
2017-03-28T06:42:44.247Z,640
2017-03-28T06:43:55.446Z,710
2017-03-28T06:45:06.443Z,775
2017-03-28T06:46:17.433Z,800
2017-03-28T06:47:28.435Z,945
2017-03-28T06:48:39.826Z,1500
2017-03-28T06:49:51.019Z,1455
2017-03-28T06:51:02.218Z,1350
2017-03-28T06:52:13.462Z,1680
2017-03-28T06:53:24.455Z,1815
2017-03-28T06:54:35.459Z,1825
2017-03-28T06:55:46.458Z,1825
2017-03-28T06:56:57.456Z,1895
2017-03-28T06:58:08.653Z,1940
2017-03-28T06:59:19.651Z,1905
2017-03-28T07:00:30.648Z,1920
2017-03-28T07:01:41.657Z,1915
2017-03-28T07:02:52.917Z,1995
2017-03-28T07:04:03.942Z,2040
2017-03-28T07:05:14.941Z,2075
2017-03-28T07:06:25.938Z,2070
2017-03-28T07:07:36.938Z,2090
2017-03-28T07:08:47.950Z,2050
2017-03-28T07:09:58.954Z,2115
2017-03-28T07:11:09.954Z,2185
2017-03-28T07:12:20.963Z,1940
2017-03-28T07:13:32.171Z,1785
2017-03-28T07:14:43.177Z,2065
2017-03-28T07:15:54.171Z,2060
2017-03-28T07:17:05.384Z,2090
2017-03-28T07:18:16.401Z,2120
2017-03-28T07:19:27.408Z,2080
2017-03-28T07:20:38.421Z,1965
2017-03-28T07:21:49.431Z,1765
2017-03-28T07:23:00.447Z,1500
2017-03-28T07:24:11.907Z,1665
2017-03-28T07:25:22.907Z,1950
2017-03-28T07:26:33.910Z,2070
2017-03-28T07:27:44.925Z,2245
2017-03-28T07:28:55.940Z,2205
2017-03-28T07:30:06.959Z,2215
2017-03-28T07:31:18.165Z,2145
2017-03-28T07:32:29.206Z,1900
2017-03-28T07:33:40.436Z,1675
2017-03-28T07:34:51.505Z,1955
2017-03-28T07:36:02.513Z,2045
2017-03-28T07:37:13.516Z,1805
2017-03-28T07:38:24.534Z,1935
2017-03-28T07:39:35.554Z,2170
2017-03-28T07:40:46.561Z,2320
2017-03-28T07:41:57.769Z,2305
2017-03-28T07:43:09.179Z,2310
2017-03-28T07:44:20.185Z,2220
2017-03-28T07:45:31.404Z,2330
2017-03-28T07:46:42.414Z,2375
2017-03-28T07:47:53.410Z,2445
2017-03-28T07:49:04.413Z,2530
2017-03-28T07:50:15.869Z,2355
2017-03-28T07:51:26.887Z,2035
2017-03-28T07:52:37.891Z,2435
2017-03-28T07:53:48.897Z,2550
2017-03-28T07:54:59.910Z,2350
2017-03-28T07:56:10.925Z,2170
2017-03-28T07:57:21.939Z,2555
2017-03-28T07:58:32.957Z,2570
2017-03-28T07:59:43.978Z,2525
2017-03-28T08:00:55.197Z,2560
2017-03-28T08:02:06.619Z,2525
2017-03-28T08:03:17.646Z,2600
2017-03-28T08:04:28.656Z,2565
2017-03-28T08:05:39.707Z,2565
2017-03-28T08:06:50.774Z,2605
2017-03-28T08:08:01.781Z,2635
2017-03-28T08:09:12.799Z,2570
2017-03-28T08:10:23.804Z,2575
2017-03-28T08:11:34.815Z,2535
2017-03-28T08:12:45.831Z,2515
2017-03-28T08:13:56.846Z,2540
2017-03-28T08:15:07.866Z,2670
2017-03-28T08:16:18.883Z,2835
2017-03-28T08:17:29.945Z,2465
2017-03-28T08:18:40.961Z,2490
2017-03-28T08:19:51.975Z,2740
2017-03-28T08:21:02.982Z,2635
2017-03-28T08:22:13.995Z,2730
2017-03-28T08:23:25.014Z,2755
2017-03-28T08:24:36.019Z,2735
2017-03-28T08:25:47.226Z,2755
2017-03-28T08:26:58.244Z,2660
2017-03-28T08:28:09.542Z,2705
2017-03-28T08:29:20.555Z,2795
2017-03-28T08:30:31.979Z,2665
2017-03-28T08:31:42.993Z,2660
2017-03-28T08:32:54.205Z,2920
2017-03-28T08:34:05.225Z,2655
2017-03-28T08:35:16.245Z,2435
2017-03-28T08:36:27.267Z,2505
2017-03-28T08:37:38.279Z,2565
2017-03-28T08:38:49.293Z,2720
2017-03-28T08:40:00.310Z,2710
2017-03-28T08:41:11.328Z,2710
2017-03-28T08:42:22.342Z,2660
2017-03-28T08:43:33.359Z,2615
2017-03-28T08:44:44.380Z,2615
2017-03-28T08:45:55.398Z,2490
2017-03-28T08:47:06.413Z,2555
2017-03-28T08:48:17.437Z,2755
2017-03-28T08:49:28.508Z,2735
2017-03-28T08:50:39.516Z,2725
2017-03-28T08:51:50.517Z,2605
2017-03-28T08:53:01.541Z,2775
2017-03-28T08:54:12.552Z,2650
2017-03-28T08:55:23.560Z,2725
2017-03-28T08:56:34.769Z,2705
2017-03-28T08:57:45.989Z,2710
2017-03-28T08:58:57.009Z,2670
2017-03-28T09:00:08.276Z,2755
2017-03-28T09:01:19.302Z,2690
2017-03-28T09:02:30.315Z,2730
2017-03-28T09:03:41.574Z,2710
2017-03-28T09:04:52.588Z,2700
2017-03-28T09:06:03.607Z,2720
2017-03-28T09:07:14.619Z,2685
2017-03-28T09:08:25.650Z,2670
2017-03-28T09:09:36.665Z,2645
2017-03-28T09:10:47.930Z,2650
2017-03-28T09:11:58.944Z,2765
2017-03-28T09:13:09.954Z,2505
2017-03-28T09:14:21.171Z,2370
2017-03-28T09:15:32.188Z,2530
2017-03-28T09:16:43.209Z,2595
2017-03-28T09:17:54.427Z,2620
2017-03-28T09:19:05.458Z,2695
2017-03-28T09:20:16.483Z,2690
2017-03-28T09:21:27.548Z,2545
2017-03-28T09:22:38.764Z,2440
2017-03-28T09:23:49.787Z,2420
2017-03-28T09:25:00.804Z,2550
2017-03-28T09:26:11.821Z,2690
2017-03-28T09:27:22.843Z,2640
2017-03-28T09:28:33.853Z,2600
2017-03-28T09:29:44.876Z,2580
2017-03-28T09:30:56.297Z,2580
2017-03-28T09:32:07.321Z,2445
2017-03-28T09:33:18.338Z,2460
2017-03-28T09:34:29.364Z,2485
2017-03-28T09:35:40.380Z,2395
2017-03-28T09:36:51.394Z,2425
2017-03-28T09:38:02.668Z,2485
2017-03-28T09:39:13.719Z,2690
2017-03-28T09:40:24.723Z,2620
2017-03-28T09:41:35.744Z,2560
2017-03-28T09:42:46.765Z,2745
2017-03-28T09:43:57.772Z,2590
2017-03-28T09:45:08.790Z,2490
2017-03-28T09:46:19.802Z,2570
2017-03-28T09:47:30.811Z,2565
2017-03-28T09:48:41.881Z,2630
2017-03-28T09:49:52.890Z,2605
2017-03-28T09:51:04.108Z,2680
2017-03-28T09:52:15.125Z,2600
2017-03-28T09:53:26.345Z,2605
2017-03-28T09:54:37.365Z,2640
2017-03-28T09:55:48.378Z,2625
2017-03-28T09:56:59.396Z,2640
2017-03-28T09:58:10.410Z,2550
2017-03-28T09:59:21.484Z,2580
2017-03-28T10:00:32.500Z,2665
2017-03-28T10:01:43.522Z,2525
2017-03-28T10:02:54.541Z,2605
2017-03-28T10:04:05.553Z,2540
2017-03-28T10:05:16.580Z,2505
2017-03-28T10:06:27.594Z,2605
2017-03-28T10:07:38.809Z,2515
2017-03-28T10:08:50.035Z,2485
2017-03-28T10:10:01.054Z,2500
2017-03-28T10:11:12.068Z,2430
2017-03-28T10:12:23.084Z,2410
2017-03-28T10:13:34.092Z,2485
2017-03-28T10:14:45.100Z,2525
2017-03-28T10:15:56.318Z,2455
2017-03-28T10:17:07.541Z,2405
2017-03-28T10:18:18.758Z,2440
2017-03-28T10:19:29.777Z,2465
2017-03-28T10:20:40.996Z,2500
2017-03-28T10:21:52.013Z,2370
2017-03-28T10:23:03.031Z,2450
2017-03-28T10:24:14.245Z,2460
2017-03-28T10:25:25.512Z,2450
2017-03-28T10:26:36.937Z,2495
2017-03-28T10:27:47.959Z,2555
2017-03-28T10:28:59.175Z,2380
2017-03-28T10:30:10.192Z,2470
2017-03-28T10:31:21.205Z,2585
2017-03-28T10:32:32.219Z,2430
2017-03-28T10:33:43.422Z,2380
2017-03-28T10:34:54.438Z,2340
2017-03-28T10:36:05.902Z,2355
2017-03-28T10:37:16.913Z,2420
2017-03-28T10:38:28.127Z,2395
2017-03-28T10:39:39.144Z,2365
2017-03-28T10:40:50.161Z,2280
2017-03-28T10:42:01.179Z,2300
2017-03-28T10:43:12.198Z,2370
2017-03-28T10:44:23.222Z,2375
2017-03-28T10:45:34.246Z,2400
2017-03-28T10:46:45.243Z,2330
2017-03-28T10:47:56.461Z,2370
2017-03-28T10:49:07.498Z,2350
2017-03-28T10:50:18.521Z,2280
2017-03-28T10:51:29.559Z,2245
2017-03-28T10:52:40.578Z,2260
2017-03-28T10:53:51.794Z,2215
2017-03-28T10:55:02.810Z,2075
2017-03-28T10:56:13.821Z,2200
2017-03-28T10:57:24.836Z,2100
2017-03-28T10:58:35.846Z,2130
2017-03-28T10:59:46.862Z,2115
2017-03-28T11:00:57.876Z,2090
2017-03-28T11:02:08.949Z,2200
2017-03-28T11:03:20.167Z,2140
2017-03-28T11:04:31.195Z,2075
2017-03-28T11:05:42.239Z,2060
2017-03-28T11:06:53.265Z,2030
2017-03-28T11:08:04.283Z,2075
2017-03-28T11:09:15.304Z,2045
2017-03-28T11:10:26.509Z,2000
2017-03-28T11:11:37.524Z,2055
2017-03-28T11:12:48.793Z,2035
2017-03-28T11:13:59.812Z,2025
2017-03-28T11:15:10.825Z,2025
2017-03-28T11:16:22.037Z,1995
2017-03-28T11:17:33.054Z,1970
2017-03-28T11:18:44.079Z,1935
2017-03-28T11:19:55.092Z,1980
2017-03-28T11:21:06.322Z,1925
2017-03-28T11:22:17.330Z,1920
2017-03-28T11:23:28.607Z,1865
2017-03-28T11:24:39.614Z,1795
2017-03-28T11:25:50.623Z,1845
2017-03-28T11:27:01.643Z,1860
2017-03-28T11:28:12.666Z,1760
2017-03-28T11:29:23.683Z,1765
2017-03-28T11:30:34.707Z,1760
2017-03-28T11:31:45.720Z,1760
2017-03-28T11:32:56.938Z,1680
2017-03-28T11:34:07.945Z,1680
2017-03-28T11:35:19.166Z,1685
2017-03-28T11:36:30.184Z,1640
2017-03-28T11:37:41.396Z,1565
2017-03-28T11:38:52.658Z,1495
2017-03-28T11:40:03.672Z,1565
2017-03-28T11:41:14.895Z,1570
2017-03-28T11:42:25.932Z,1555
2017-03-28T11:43:37.153Z,1575
2017-03-28T11:44:48.167Z,1630
2017-03-28T11:45:59.183Z,1580
2017-03-28T11:47:10.403Z,1540
2017-03-28T11:48:21.419Z,1560
2017-03-28T11:49:32.636Z,1610
2017-03-28T11:50:43.650Z,1710
2017-03-28T11:51:54.680Z,1550
2017-03-28T11:53:05.699Z,1380
2017-03-28T11:54:16.762Z,1325
2017-03-28T11:55:27.975Z,1285
2017-03-28T11:56:39.396Z,1285
2017-03-28T11:57:50.627Z,1290
2017-03-28T11:59:01.848Z,1330
2017-03-28T12:00:12.859Z,1435
2017-03-28T12:01:23.876Z,1420
2017-03-28T12:02:34.891Z,1160
2017-03-28T12:03:45.912Z,940
2017-03-28T12:04:56.929Z,900
2017-03-28T12:06:07.943Z,895
2017-03-28T12:07:19.151Z,935
2017-03-28T12:08:30.155Z,945
2017-03-28T12:09:41.160Z,1000
2017-03-28T12:10:52.177Z,1065
2017-03-28T12:12:03.181Z,1120
2017-03-28T12:13:14.391Z,1195
2017-03-28T12:14:25.408Z,1245
2017-03-28T12:15:36.624Z,1290
2017-03-28T12:16:47.634Z,1300
2017-03-28T12:17:58.836Z,1285
2017-03-28T12:19:10.040Z,1275
2017-03-28T12:20:21.050Z,1250
2017-03-28T12:21:32.267Z,1165
2017-03-28T12:22:43.476Z,1120
2017-03-28T12:23:54.515Z,1110
2017-03-28T12:25:05.520Z,1095
2017-03-28T12:26:16.528Z,1090
2017-03-28T12:27:27.736Z,1075
2017-03-28T12:28:38.752Z,1080
2017-03-28T12:29:50.012Z,1030
2017-03-28T12:31:01.423Z,980
2017-03-28T12:32:12.627Z,960
2017-03-28T12:33:23.635Z,930
2017-03-28T12:34:34.852Z,905
2017-03-28T12:35:45.867Z,905
2017-03-28T12:36:56.879Z,885
2017-03-28T12:38:07.892Z,835
2017-03-28T12:39:19.099Z,835
2017-03-28T12:40:30.106Z,855
2017-03-28T12:41:41.115Z,745
2017-03-28T12:42:52.137Z,645
2017-03-28T12:44:03.151Z,745
2017-03-28T12:45:14.360Z,750
2017-03-28T12:46:25.370Z,780
2017-03-28T12:47:36.380Z,725
2017-03-28T12:48:47.383Z,670
2017-03-28T12:49:58.381Z,725
2017-03-28T12:51:09.386Z,675
2017-03-28T12:52:20.399Z,575
2017-03-28T12:53:31.411Z,645
2017-03-28T12:54:42.424Z,635
2017-03-28T12:55:53.444Z,620
2017-03-28T12:57:04.445Z,650
2017-03-28T12:58:15.452Z,630
2017-03-28T12:59:26.657Z,635
2017-03-28T13:00:37.915Z,585
2017-03-28T13:01:48.933Z,585
2017-03-28T13:02:59.940Z,600
2017-03-28T13:04:10.946Z,575
2017-03-28T13:05:21.959Z,490
2017-03-28T13:06:32.967Z,470
2017-03-28T13:07:43.998Z,490
2017-03-28T13:08:55.005Z,485
2017-03-28T13:10:06.024Z,490
2017-03-28T13:11:17.276Z,500
2017-03-28T13:12:28.283Z,440
2017-03-28T13:13:39.285Z,450
2017-03-28T13:14:50.289Z,445
2017-03-28T13:16:01.296Z,425
2017-03-28T13:17:12.294Z,420
2017-03-28T13:18:23.497Z,455
2017-03-28T13:19:34.502Z,455
2017-03-28T13:20:45.708Z,485
2017-03-28T13:21:56.960Z,405
2017-03-28T13:23:07.963Z,435
2017-03-28T13:24:19.162Z,480
2017-03-28T13:25:30.359Z,480
2017-03-28T13:26:41.361Z,440
2017-03-28T13:27:52.405Z,405
2017-03-28T13:29:03.424Z,405
2017-03-28T13:30:14.428Z,395
2017-03-28T13:31:25.436Z,410
2017-03-28T13:32:36.479Z,410
2017-03-28T13:33:47.480Z,395
2017-03-28T13:34:58.492Z,385
2017-03-28T13:36:09.493Z,370
2017-03-28T13:37:20.488Z,360
2017-03-28T13:38:31.491Z,365
2017-03-28T13:39:42.492Z,365
2017-03-28T13:40:53.498Z,375
2017-03-28T13:42:04.497Z,365
2017-03-28T13:43:15.498Z,365
2017-03-28T13:44:26.514Z,365
2017-03-28T13:45:37.522Z,355
2017-03-28T13:46:48.527Z,360
2017-03-28T13:47:59.576Z,370
2017-03-28T13:49:10.787Z,360
2017-03-28T13:50:21.986Z,340
2017-03-28T13:51:33.002Z,365
2017-03-28T13:52:44.003Z,370
2017-03-28T13:53:55.008Z,365
2017-03-28T13:55:06.005Z,365
2017-03-28T13:56:17.013Z,365
2017-03-28T13:57:28.251Z,360
2017-03-28T13:58:39.299Z,375
2017-03-28T13:59:50.306Z,385
2017-03-28T14:01:01.302Z,380
2017-03-28T14:02:12.504Z,385
2017-03-28T14:03:23.517Z,400
2017-03-28T14:04:34.519Z,400
2017-03-28T14:05:45.520Z,395
2017-03-28T14:06:56.928Z,385
2017-03-28T14:08:07.933Z,390
2017-03-28T14:09:19.189Z,395
2017-03-28T14:10:30.195Z,390
2017-03-28T14:11:41.193Z,395
2017-03-28T14:12:52.207Z,395
2017-03-28T14:14:03.209Z,400
2017-03-28T14:15:14.223Z,395
2017-03-28T14:16:25.222Z,390
2017-03-28T14:17:36.222Z,385
2017-03-28T14:18:47.230Z,360
2017-03-28T14:19:58.436Z,335
2017-03-28T14:21:09.444Z,330
2017-03-28T14:22:20.444Z,325
2017-03-28T14:23:31.451Z,325
2017-03-28T14:24:42.450Z,320
2017-03-28T14:25:53.452Z,315
2017-03-28T14:27:04.452Z,310
2017-03-28T14:28:15.461Z,305
2017-03-28T14:29:26.459Z,300
2017-03-28T14:30:37.505Z,290
2017-03-28T14:31:48.505Z,290
2017-03-28T14:32:59.508Z,285
2017-03-28T14:34:10.510Z,280
2017-03-28T14:35:21.507Z,270
2017-03-28T14:36:32.499Z,270
2017-03-28T14:37:43.501Z,270
2017-03-28T14:38:54.508Z,270
2017-03-28T14:40:05.513Z,270
2017-03-28T14:41:16.960Z,265
2017-03-28T14:42:28.153Z,265
2017-03-28T14:43:39.352Z,260
2017-03-28T14:44:50.557Z,260
2017-03-28T14:46:01.562Z,265
2017-03-28T14:47:12.562Z,260
2017-03-28T14:48:23.763Z,260
2017-03-28T14:49:34.780Z,260
2017-03-28T14:50:45.772Z,255
2017-03-28T14:51:56.823Z,255
2017-03-28T14:53:07.828Z,255
2017-03-28T14:54:18.846Z,255
2017-03-28T14:55:29.846Z,250
2017-03-28T14:56:40.858Z,250
2017-03-28T14:57:51.857Z,250
2017-03-28T14:59:03.062Z,245
2017-03-28T15:00:14.069Z,245
2017-03-28T15:01:25.096Z,245
2017-03-28T15:02:36.297Z,240
2017-03-28T15:03:47.288Z,240
2017-03-28T15:04:58.505Z,235
2017-03-28T15:06:09.508Z,235
2017-03-28T15:07:20.756Z,235
2017-03-28T15:08:31.764Z,235
2017-03-28T15:09:42.769Z,235
2017-03-28T15:10:53.773Z,235
2017-03-28T15:12:04.770Z,235
2017-03-28T15:13:15.776Z,230
2017-03-28T15:14:26.784Z,230
2017-03-28T15:15:37.787Z,225
2017-03-28T15:16:48.791Z,225
2017-03-28T15:17:59.850Z,225
2017-03-28T15:19:10.862Z,225
2017-03-28T15:20:21.870Z,225
2017-03-28T15:21:32.876Z,220
2017-03-28T15:22:44.079Z,220
2017-03-28T15:23:55.292Z,220
2017-03-28T15:25:06.289Z,220
2017-03-28T15:26:17.289Z,215
2017-03-28T15:27:28.490Z,215
2017-03-28T15:28:39.548Z,215
2017-03-28T15:29:50.552Z,215
2017-03-28T15:31:01.558Z,210
2017-03-28T15:32:12.558Z,210
2017-03-28T15:33:23.758Z,215
2017-03-28T15:34:34.951Z,210
2017-03-28T15:35:45.952Z,205
2017-03-28T15:36:56.949Z,210
2017-03-28T15:38:07.944Z,205
2017-03-28T15:39:18.995Z,200
2017-03-28T15:40:30.004Z,205
2017-03-28T15:41:40.999Z,200
2017-03-28T15:42:51.993Z,200
2017-03-28T15:44:02.995Z,200
2017-03-28T15:45:14.194Z,195
2017-03-28T15:46:25.390Z,195
2017-03-28T15:47:36.394Z,195
2017-03-28T15:48:47.385Z,195
2017-03-28T15:49:58.432Z,195
2017-03-28T15:51:09.442Z,190
2017-03-28T15:52:20.470Z,190
2017-03-28T15:53:31.496Z,195
2017-03-28T15:54:42.493Z,190
2017-03-28T15:55:53.496Z,190
2017-03-28T15:57:04.699Z,185
2017-03-28T15:58:15.691Z,185
2017-03-28T15:59:26.686Z,185
2017-03-28T16:00:37.734Z,180
2017-03-28T16:01:48.737Z,180
2017-03-28T16:02:59.732Z,180
2017-03-28T16:04:10.726Z,175
2017-03-28T16:05:21.731Z,175
2017-03-28T16:06:32.933Z,175
2017-03-28T16:07:43.925Z,175
2017-03-28T16:08:54.918Z,170
2017-03-28T16:10:05.918Z,170
2017-03-28T16:11:16.984Z,170
2017-03-28T16:12:27.975Z,165
2017-03-28T16:13:39.570Z,165
2017-03-28T16:14:50.569Z,165
2017-03-28T16:16:01.771Z,165
2017-03-28T16:17:12.773Z,160
2017-03-28T16:18:23.803Z,160
2017-03-28T16:19:35.031Z,155
2017-03-28T16:20:46.025Z,155
2017-03-28T16:21:57.030Z,150
2017-03-28T16:23:08.044Z,150
2017-03-28T16:24:19.242Z,150
2017-03-28T16:25:30.240Z,140
2017-03-28T16:26:41.289Z,135
2017-03-28T16:27:52.491Z,130
2017-03-28T16:29:03.489Z,135